Cold Water, Mississippi
Current Conditions -  °F | °C
As of 7:35 PM on Monday 22 Dec 2014 (Local Time) from KUTA Reporting Station
Moderate Rain Moderate Rain  
Wind Chill: 55°   Ceiling: 1400
Heat Index: 55°   Visibility: 5mi
Dew Point: 55°   Wind: 0mph
Humidity: 100%   Direction: NA
Pressure: 29.64"   Gusts: NA
Location:  34.6957°N, 90.0062°W
Report Text: KUTA 230135Z AUTO 00000KT 5SM RA SCT008 OVC014 13/13 A2964 RMK AO2 P0004
Loading
Personal Weather Stations






























Interactive Weather Map New forecast layout! Learn more

10-Day Weather Forecast

Advertisements
Track Severe Weather on mobile